createdAt,value
2019-01-08T00:00:20.375Z,1001.24
2019-01-08T00:01:20.370Z,1001.30
2019-01-08T00:02:20.352Z,1001.23
2019-01-08T00:03:20.318Z,1001.27
2019-01-08T00:04:20.310Z,1001.20
2019-01-08T00:05:20.335Z,1001.17
2019-01-08T00:06:20.407Z,1001.18
2019-01-08T00:07:20.242Z,1001.20
2019-01-08T00:08:20.229Z,1001.17
2019-01-08T00:09:20.203Z,1001.16
2019-01-08T00:10:20.196Z,1001.13
2019-01-08T00:11:20.176Z,1001.12
2019-01-08T00:12:20.216Z,1001.08
2019-01-08T00:13:20.131Z,1001.09
2019-01-08T00:14:20.118Z,1001.06
2019-01-08T00:15:20.089Z,1001.09
2019-01-08T00:16:20.073Z,1001.06
2019-01-08T00:17:20.051Z,1001.03
2019-01-08T00:18:20.040Z,1001.07
2019-01-08T00:19:20.018Z,1001.03
2019-01-08T00:20:20.006Z,1000.94
2019-01-08T00:21:19.990Z,1000.96
2019-01-08T00:22:19.992Z,1000.92
2019-01-08T00:23:19.949Z,1000.90
2019-01-08T00:24:19.926Z,1000.83
2019-01-08T00:25:19.899Z,1000.84
2019-01-08T00:26:19.904Z,1000.84
2019-01-08T00:27:19.864Z,1000.84
2019-01-08T00:28:19.869Z,1000.87
2019-01-08T00:29:19.968Z,1000.80
2019-01-08T00:30:19.820Z,1000.83
2019-01-08T00:31:19.801Z,1000.73
2019-01-08T00:32:19.784Z,1000.74
2019-01-08T00:33:19.757Z,1000.81
2019-01-08T00:34:19.741Z,1000.78
2019-01-08T00:35:19.716Z,1000.82
2019-01-08T00:36:19.689Z,1000.73
2019-01-08T00:37:19.675Z,1000.78
2019-01-08T00:38:19.657Z,1000.71
2019-01-08T00:39:19.646Z,1000.77
2019-01-08T00:40:19.773Z,1000.76
2019-01-08T00:41:19.599Z,1000.71
2019-01-08T00:42:19.596Z,1000.69
2019-01-08T00:43:19.582Z,1000.76
2019-01-08T00:44:19.543Z,1000.74
2019-01-08T00:45:19.533Z,1000.68
2019-01-08T00:46:19.551Z,1000.65
2019-01-08T00:47:19.502Z,1000.62
2019-01-08T00:48:19.468Z,1000.62
2019-01-08T00:49:19.462Z,1000.63
2019-01-08T00:50:19.437Z,1000.67
2019-01-08T00:51:19.454Z,1000.73
2019-01-08T00:52:19.547Z,1000.68
2019-01-08T00:53:19.384Z,1000.61
2019-01-08T00:54:19.367Z,1000.57
2019-01-08T00:55:19.349Z,1000.53
2019-01-08T00:56:19.337Z,1000.56
2019-01-08T00:57:19.299Z,1000.58
2019-01-08T00:58:19.317Z,1000.56
2019-01-08T00:59:19.258Z,1000.58
2019-01-08T01:00:19.255Z,1000.60
2019-01-08T01:01:19.232Z,1000.58
2019-01-08T01:02:19.222Z,1000.57
2019-01-08T01:03:19.221Z,1000.53
2019-01-08T01:04:19.176Z,1000.53
2019-01-08T01:05:19.145Z,1000.53
2019-01-08T01:06:19.135Z,1000.46
2019-01-08T01:07:19.118Z,1000.52
2019-01-08T01:08:19.262Z,1000.39
2019-01-08T01:09:19.077Z,1000.54
2019-01-08T01:10:19.055Z,1000.41
2019-01-08T01:11:19.051Z,1000.33
2019-01-08T01:12:19.025Z,1000.42
2019-01-08T01:13:19.002Z,1000.39
2019-01-08T01:14:19.051Z,1000.45
2019-01-08T01:15:18.967Z,1000.46
2019-01-08T01:16:18.939Z,1000.40
2019-01-08T01:17:18.922Z,1000.50
2019-01-08T01:18:18.911Z,1000.35
2019-01-08T01:19:18.929Z,1000.39
2019-01-08T01:20:18.878Z,1000.49
2019-01-08T01:21:18.856Z,1000.49
2019-01-08T01:22:18.831Z,1000.35
2019-01-08T01:23:18.814Z,1000.37
2019-01-08T01:24:18.789Z,1000.42
2019-01-08T01:25:18.823Z,1000.39
2019-01-08T01:26:18.761Z,1000.35
2019-01-08T01:27:18.733Z,1000.35
2019-01-08T01:28:18.728Z,1000.35
2019-01-08T01:29:18.708Z,1000.32
2019-01-08T01:30:18.735Z,1000.25
2019-01-08T01:31:18.660Z,1000.26
2019-01-08T01:32:18.650Z,1000.24
2019-01-08T01:33:18.633Z,1000.25
2019-01-08T01:34:18.619Z,1000.17
2019-01-08T01:35:18.581Z,1000.21
2019-01-08T01:36:18.599Z,1000.21
2019-01-08T01:37:18.558Z,1000.21
2019-01-08T01:38:18.536Z,1000.22
2019-01-08T01:39:18.522Z,1000.08
2019-01-08T01:40:18.491Z,1000.06
2019-01-08T01:41:18.557Z,1000.12
2019-01-08T01:42:18.468Z,1000.12
2019-01-08T01:43:18.429Z,1000.03
2019-01-08T01:44:18.426Z,1000.14
2019-01-08T01:45:18.411Z,999.94
2019-01-08T01:46:18.374Z,1000.06
2019-01-08T01:47:18.515Z,999.92
2019-01-08T01:48:18.350Z,1000.01
2019-01-08T01:49:18.329Z,1000.07
2019-01-08T01:50:18.316Z,1000.04
2019-01-08T01:51:18.284Z,1000.06
2019-01-08T01:52:18.273Z,999.97
2019-01-08T01:53:18.265Z,1000.02
2019-01-08T01:54:18.244Z,1000.04
2019-01-08T01:55:18.222Z,1000.10
2019-01-08T01:56:18.231Z,1000.00
2019-01-08T01:57:18.178Z,999.96
2019-01-08T01:58:18.169Z,1000.02
2019-01-08T01:59:18.148Z,999.94
2019-01-08T02:00:18.127Z,1000.00
2019-01-08T02:01:18.104Z,1000.12
2019-01-08T02:02:18.248Z,1000.05
2019-01-08T02:03:18.073Z,1000.03
2019-01-08T02:04:18.039Z,1000.07
2019-01-08T02:05:18.035Z,1000.00
2019-01-08T02:06:18.003Z,1000.07
2019-01-08T02:07:17.977Z,999.98
2019-01-08T02:08:17.969Z,1000.01
2019-01-08T02:09:17.951Z,999.89
2019-01-08T02:10:17.933Z,1000.04
2019-01-08T02:11:17.919Z,999.99
2019-01-08T02:12:17.886Z,999.98
2019-01-08T02:13:17.908Z,999.93
2019-01-08T02:14:17.851Z,999.96
2019-01-08T02:15:17.837Z,999.98
2019-01-08T02:16:17.821Z,999.89
2019-01-08T02:17:17.809Z,999.87
2019-01-08T02:18:17.815Z,999.77
2019-01-08T02:19:17.769Z,999.83
2019-01-08T02:20:17.744Z,999.86
2019-01-08T02:21:17.714Z,999.73
2019-01-08T02:22:17.708Z,999.67
2019-01-08T02:23:17.818Z,999.74
2019-01-08T02:24:17.663Z,999.75
2019-01-08T02:25:17.654Z,999.67
2019-01-08T02:26:17.630Z,999.66
2019-01-08T02:27:17.613Z,999.58
2019-01-08T02:28:17.585Z,999.59
2019-01-08T02:29:17.611Z,999.71
2019-01-08T02:30:17.570Z,999.66
2019-01-08T02:31:17.524Z,999.63
2019-01-08T02:32:17.523Z,999.55
2019-01-08T02:33:17.501Z,999.54
2019-01-08T02:34:17.516Z,999.53
2019-01-08T02:35:17.463Z,999.46
2019-01-08T02:36:17.442Z,999.49
2019-01-08T02:37:17.419Z,999.44
2019-01-08T02:38:17.401Z,999.41
2019-01-08T02:39:17.408Z,999.52
2019-01-08T02:40:17.356Z,999.34
2019-01-08T02:41:17.412Z,999.42
2019-01-08T02:42:17.327Z,999.32
2019-01-08T02:43:17.299Z,999.40
2019-01-08T02:44:17.478Z,999.29
2019-01-08T02:45:17.292Z,999.31
2019-01-08T02:46:17.282Z,999.29
2019-01-08T02:47:17.242Z,999.23
2019-01-08T02:48:17.216Z,999.21
2019-01-08T02:49:17.191Z,999.25
2019-01-08T02:50:17.175Z,999.23
2019-01-08T02:51:17.163Z,999.29
2019-01-08T02:52:17.128Z,999.21
2019-01-08T02:53:17.113Z,999.09
2019-01-08T02:54:17.107Z,999.23
2019-01-08T02:55:17.113Z,999.08
2019-01-08T02:56:17.092Z,998.77
2019-01-08T02:57:17.046Z,999.21
2019-01-08T02:58:17.027Z,999.07
2019-01-08T02:59:24.900Z,999.06
2019-01-08T03:00:17.066Z,999.02
2019-01-08T03:01:17.010Z,999.06
2019-01-08T03:02:16.942Z,998.99
2019-01-08T03:03:16.937Z,998.96
2019-01-08T03:04:16.938Z,998.82
2019-01-08T03:05:16.887Z,998.95
2019-01-08T03:06:16.930Z,998.74
2019-01-08T03:07:16.854Z,998.77
2019-01-08T03:08:16.838Z,998.83
2019-01-08T03:09:16.811Z,998.72
2019-01-08T03:10:16.791Z,998.88
2019-01-08T03:11:16.771Z,998.65
2019-01-08T03:12:16.758Z,998.82
2019-01-08T03:13:16.731Z,998.46
2019-01-08T03:14:16.714Z,998.65
2019-01-08T03:15:16.705Z,998.61
2019-01-08T03:16:16.671Z,998.63
2019-01-08T03:17:16.664Z,998.74
2019-01-08T03:18:16.641Z,998.64
2019-01-08T03:19:16.616Z,998.58
2019-01-08T03:20:16.642Z,998.47
2019-01-08T03:21:16.591Z,998.45
2019-01-08T03:22:16.589Z,998.36
2019-01-08T03:23:16.540Z,998.46
2019-01-08T03:24:16.538Z,998.36
2019-01-08T03:25:16.519Z,998.58
2019-01-08T03:26:16.497Z,998.60
2019-01-08T03:27:16.521Z,998.42
2019-01-08T03:28:16.458Z,998.38
2019-01-08T03:29:16.429Z,998.52
2019-01-08T03:30:16.408Z,998.39
2019-01-08T03:31:16.392Z,998.43
2019-01-08T03:32:16.384Z,998.38
2019-01-08T03:33:16.388Z,998.05
2019-01-08T03:34:16.336Z,998.26
2019-01-08T03:35:16.327Z,998.16
2019-01-08T03:36:16.292Z,998.16
2019-01-08T03:37:16.283Z,998.16
2019-01-08T03:38:16.288Z,998.09
2019-01-08T03:39:16.233Z,998.12
2019-01-08T03:40:16.225Z,997.84
2019-01-08T03:41:16.199Z,998.08
2019-01-08T03:42:16.192Z,997.99
2019-01-08T03:43:16.160Z,997.91
2019-01-08T03:44:16.163Z,997.91
2019-01-08T03:45:16.274Z,997.93
2019-01-08T03:46:16.118Z,997.81
2019-01-08T03:47:16.084Z,997.85
2019-01-08T03:48:16.076Z,997.89
2019-01-08T03:49:16.056Z,997.92
2019-01-08T03:50:16.045Z,997.91
2019-01-08T03:51:16.099Z,997.86
2019-01-08T03:52:16.001Z,997.63
2019-01-08T03:53:15.975Z,997.85
2019-01-08T03:54:15.965Z,997.75
2019-01-08T03:55:15.945Z,997.77
2019-01-08T03:56:15.912Z,997.57
2019-01-08T03:57:15.899Z,997.52
2019-01-08T03:58:15.882Z,997.65
2019-01-08T03:59:15.864Z,997.68
2019-01-08T04:00:15.971Z,997.53
2019-01-08T04:01:15.817Z,997.65
2019-01-08T04:02:15.813Z,997.64
2019-01-08T04:03:15.778Z,997.56
2019-01-08T04:04:15.756Z,997.53
2019-01-08T04:05:15.751Z,997.59
2019-01-08T04:06:15.884Z,997.54
2019-01-08T04:07:15.710Z,997.49
2019-01-08T04:08:15.690Z,997.41
2019-01-08T04:09:15.668Z,997.76
2019-01-08T04:10:15.644Z,997.55
2019-01-08T04:11:15.623Z,997.55
2019-01-08T04:12:15.627Z,997.37
2019-01-08T04:13:15.598Z,997.48
2019-01-08T04:14:15.582Z,997.39
2019-01-08T04:15:15.594Z,997.55
2019-01-08T04:16:15.558Z,997.57
2019-01-08T04:17:15.507Z,997.42
2019-01-08T04:18:15.496Z,997.39
2019-01-08T04:19:15.488Z,997.47
2019-01-08T04:20:15.460Z,997.40
2019-01-08T04:21:15.474Z,997.41
2019-01-08T04:22:15.414Z,997.36
2019-01-08T04:23:15.395Z,997.37
2019-01-08T04:24:15.381Z,997.49
2019-01-08T04:25:15.372Z,997.39
2019-01-08T04:26:15.500Z,997.43
2019-01-08T04:27:15.316Z,997.31
2019-01-08T04:28:15.314Z,997.27
2019-01-08T04:29:15.279Z,997.20
2019-01-08T04:30:15.261Z,997.29
2019-01-08T04:31:15.254Z,997.33
2019-01-08T04:32:15.244Z,997.10
2019-01-08T04:33:15.211Z,997.12
2019-01-08T04:34:15.192Z,997.27
2019-01-08T04:35:15.163Z,996.97
2019-01-08T04:36:15.150Z,997.22
2019-01-08T04:37:15.141Z,997.21
2019-01-08T04:38:15.112Z,997.27
2019-01-08T04:39:15.084Z,997.08
2019-01-08T04:40:15.068Z,997.06
2019-01-08T04:41:15.055Z,997.22
2019-01-08T04:42:15.185Z,997.07
2019-01-08T04:43:15.010Z,996.99
2019-01-08T04:44:14.988Z,996.95
2019-01-08T04:45:14.984Z,997.06
2019-01-08T04:46:14.951Z,996.92
2019-01-08T04:47:14.930Z,997.02
2019-01-08T04:48:14.991Z,996.79
2019-01-08T04:49:14.906Z,996.99
2019-01-08T04:50:14.878Z,996.89
2019-01-08T04:51:14.857Z,996.89
2019-01-08T04:52:14.833Z,996.75
2019-01-08T04:53:14.858Z,996.85
2019-01-08T04:54:14.838Z,996.87
2019-01-08T04:55:14.787Z,996.80
2019-01-08T04:56:14.757Z,996.85
2019-01-08T04:57:14.752Z,996.80
2019-01-08T04:58:14.721Z,996.80
2019-01-08T04:59:14.834Z,996.81
2019-01-08T05:00:14.688Z,996.58
2019-01-08T05:01:14.672Z,996.60
2019-01-08T05:02:14.652Z,996.55
2019-01-08T05:03:14.622Z,996.49
2019-01-08T05:04:14.613Z,996.55
2019-01-08T05:05:14.600Z,996.23
2019-01-08T05:06:14.582Z,996.37
2019-01-08T05:07:14.545Z,996.20
2019-01-08T05:08:14.626Z,996.13
2019-01-08T05:09:14.511Z,996.07
2019-01-08T05:10:14.526Z,996.19
2019-01-08T05:11:14.519Z,996.24
2019-01-08T05:12:14.452Z,996.33
2019-01-08T05:13:14.428Z,996.29
2019-01-08T05:14:14.417Z,996.29
2019-01-08T05:15:14.440Z,996.20
2019-01-08T05:16:14.367Z,996.26
2019-01-08T05:17:14.373Z,996.19
2019-01-08T05:18:14.346Z,996.23
2019-01-08T05:19:14.312Z,996.11
2019-01-08T05:20:14.335Z,996.07
2019-01-08T05:21:14.303Z,995.98
2019-01-08T05:22:14.258Z,996.12
2019-01-08T05:23:14.245Z,995.97
2019-01-08T05:24:14.227Z,996.18
2019-01-08T05:25:14.198Z,995.96
2019-01-08T05:26:14.211Z,996.10
2019-01-08T05:27:14.176Z,996.05
2019-01-08T05:28:14.145Z,996.09
2019-01-08T05:29:14.118Z,995.83
2019-01-08T05:30:14.113Z,995.97
2019-01-08T05:31:14.229Z,995.98
2019-01-08T05:32:14.072Z,996.12
2019-01-08T05:33:14.057Z,995.91
2019-01-08T05:34:14.029Z,995.77
2019-01-08T05:35:14.009Z,995.96
2019-01-08T05:36:13.996Z,996.08
2019-01-08T05:37:13.980Z,995.91
2019-01-08T05:38:13.954Z,996.05
2019-01-08T05:39:13.924Z,996.00
2019-01-08T05:40:13.921Z,995.94
2019-01-08T05:41:13.885Z,996.07
2019-01-08T05:42:14.013Z,995.85
2019-01-08T05:43:13.849Z,996.02
2019-01-08T05:44:13.828Z,995.81
2019-01-08T05:45:13.825Z,995.86
2019-01-08T05:46:13.802Z,995.85
2019-01-08T05:47:13.786Z,995.90
2019-01-08T05:48:13.791Z,995.82
2019-01-08T05:49:13.733Z,995.63
2019-01-08T05:50:13.788Z,995.82
2019-01-08T05:51:13.704Z,995.83
2019-01-08T05:52:13.683Z,995.78
2019-01-08T05:53:13.669Z,995.65
2019-01-08T05:54:13.643Z,995.68
2019-01-08T05:55:13.612Z,995.75
2019-01-08T05:56:13.636Z,995.78
2019-01-08T05:57:13.574Z,995.53
2019-01-08T05:58:13.564Z,995.60
2019-01-08T05:59:13.542Z,995.76
2019-01-08T06:00:16.597Z,995.84
2019-01-08T06:01:13.545Z,995.82
2019-01-08T06:02:13.475Z,995.82
2019-01-08T06:03:13.474Z,995.83
2019-01-08T06:04:13.440Z,995.81
2019-01-08T06:05:13.427Z,995.79
2019-01-08T06:06:13.463Z,995.97
2019-01-08T06:07:13.393Z,995.36
2019-01-08T06:08:13.362Z,995.70
2019-01-08T06:09:13.353Z,995.71
2019-01-08T06:10:13.331Z,995.64
2019-01-08T06:11:13.304Z,995.61
2019-01-08T06:12:13.304Z,995.68
2019-01-08T06:13:13.275Z,995.67
2019-01-08T06:14:13.261Z,995.72
2019-01-08T06:15:13.235Z,995.67
2019-01-08T06:16:13.239Z,995.83
2019-01-08T06:17:13.207Z,995.60
2019-01-08T06:18:13.173Z,995.62
2019-01-08T06:19:13.155Z,995.58
2019-01-08T06:20:13.169Z,995.62
2019-01-08T06:21:13.109Z,995.44
2019-01-08T06:22:13.111Z,995.55
2019-01-08T06:23:13.098Z,995.51
2019-01-08T06:24:13.072Z,995.34
2019-01-08T06:25:13.079Z,995.64
2019-01-08T06:26:13.020Z,995.49
2019-01-08T06:27:13.004Z,995.64
2019-01-08T06:28:13.042Z,995.37
2019-01-08T06:29:12.972Z,995.31
2019-01-08T06:30:12.947Z,995.47
2019-01-08T06:31:12.930Z,995.31
2019-01-08T06:32:12.920Z,995.39
2019-01-08T06:33:12.883Z,995.43
2019-01-08T06:34:12.879Z,995.51
2019-01-08T06:35:12.842Z,995.39
2019-01-08T06:36:12.840Z,995.34
2019-01-08T06:37:12.838Z,995.35
2019-01-08T06:38:12.779Z,995.28
2019-01-08T06:39:12.758Z,995.29
2019-01-08T06:40:12.740Z,995.34
2019-01-08T06:41:12.771Z,995.35
2019-01-08T06:42:12.703Z,995.58
2019-01-08T06:43:12.681Z,995.23
2019-01-08T06:44:12.676Z,995.30
2019-01-08T06:45:12.686Z,995.17
2019-01-08T06:46:12.635Z,995.36
2019-01-08T06:47:12.622Z,995.24
2019-01-08T06:48:12.601Z,995.15
2019-01-08T06:49:12.584Z,994.93
2019-01-08T06:50:12.590Z,995.28
2019-01-08T06:51:12.536Z,995.26
2019-01-08T06:52:12.507Z,995.29
2019-01-08T06:53:12.497Z,995.18
2019-01-08T06:54:12.482Z,995.16
2019-01-08T06:55:12.453Z,994.87
2019-01-08T06:56:12.444Z,995.04
2019-01-08T06:57:12.450Z,994.93
2019-01-08T06:58:12.392Z,995.22
2019-01-08T06:59:12.391Z,995.17
2019-01-08T07:00:12.371Z,995.17
2019-01-08T07:01:12.348Z,995.24
2019-01-08T07:02:12.336Z,995.21
2019-01-08T07:03:12.303Z,995.11
2019-01-08T07:04:12.319Z,995.10
2019-01-08T07:05:12.276Z,995.15
2019-01-08T07:06:12.249Z,995.16
2019-01-08T07:07:12.257Z,994.94
2019-01-08T07:08:12.207Z,994.97
2019-01-08T07:09:12.181Z,995.01
2019-01-08T07:10:12.175Z,995.07
2019-01-08T07:11:12.138Z,995.01
2019-01-08T07:12:12.162Z,994.91
2019-01-08T07:13:12.148Z,994.91
2019-01-08T07:14:12.098Z,995.06
2019-01-08T07:15:12.077Z,994.82
2019-01-08T07:16:12.053Z,995.10
2019-01-08T07:17:12.035Z,994.67
2019-01-08T07:18:12.105Z,994.74
2019-01-08T07:19:11.995Z,994.59
2019-01-08T07:20:11.970Z,994.91
2019-01-08T07:21:11.957Z,994.89
2019-01-08T07:22:11.929Z,994.81
2019-01-08T07:23:11.911Z,994.70
2019-01-08T07:24:11.904Z,994.81
2019-01-08T07:25:11.900Z,994.82
2019-01-08T07:26:11.861Z,994.79
2019-01-08T07:27:16.438Z,994.78
2019-01-08T07:28:11.815Z,994.78
2019-01-08T07:29:11.809Z,994.63
2019-01-08T07:30:11.797Z,994.68
2019-01-08T07:31:11.761Z,994.52
2019-01-08T07:32:11.747Z,994.76
2019-01-08T07:33:11.726Z,994.73
2019-01-08T07:34:11.841Z,994.83
2019-01-08T07:35:11.686Z,994.71
2019-01-08T07:36:11.669Z,994.68
2019-01-08T07:37:11.638Z,994.85
2019-01-08T07:38:11.621Z,994.51
2019-01-08T07:39:11.598Z,994.77
2019-01-08T07:40:11.610Z,994.61
2019-01-08T07:41:11.566Z,994.37
2019-01-08T07:42:11.553Z,994.54
2019-01-08T07:43:11.534Z,994.38
2019-01-08T07:44:11.509Z,994.60
2019-01-08T07:45:11.525Z,994.57
2019-01-08T07:46:11.522Z,994.38
2019-01-08T07:47:11.451Z,994.29
2019-01-08T07:48:11.448Z,994.30
2019-01-08T07:49:11.416Z,994.41
2019-01-08T07:50:11.384Z,994.68
2019-01-08T07:51:11.372Z,994.54
2019-01-08T07:52:11.378Z,994.22
2019-01-08T07:53:11.325Z,994.46
2019-01-08T07:54:11.347Z,994.50
2019-01-08T07:55:11.302Z,994.45
2019-01-08T07:56:11.278Z,994.66
2019-01-08T07:57:11.279Z,994.37
2019-01-08T07:58:11.242Z,994.44
2019-01-08T07:59:11.224Z,994.57
2019-01-08T08:00:11.189Z,994.46
2019-01-08T08:01:11.172Z,994.35
2019-01-08T08:02:11.204Z,994.44
2019-01-08T08:03:11.150Z,994.26
2019-01-08T08:04:11.151Z,994.36
2019-01-08T08:05:11.094Z,994.21
2019-01-08T08:06:11.084Z,994.62
2019-01-08T08:07:11.070Z,994.51
2019-01-08T08:08:11.050Z,994.57
2019-01-08T08:09:11.056Z,994.48
2019-01-08T08:10:10.999Z,994.32
2019-01-08T08:11:10.984Z,994.49
2019-01-08T08:12:10.980Z,994.43
2019-01-08T08:13:10.950Z,994.38
2019-01-08T08:14:11.043Z,994.48
2019-01-08T08:15:10.908Z,994.48
2019-01-08T08:16:10.931Z,994.27
2019-01-08T08:17:10.863Z,994.34
2019-01-08T08:18:10.847Z,994.53
2019-01-08T08:19:10.870Z,994.33
2019-01-08T08:20:10.842Z,994.36
2019-01-08T08:21:10.784Z,994.37
2019-01-08T08:22:10.766Z,994.37
2019-01-08T08:23:10.758Z,994.21
2019-01-08T08:24:10.739Z,994.30
2019-01-08T08:25:10.734Z,994.46
2019-01-08T08:26:10.696Z,994.17
2019-01-08T08:27:10.709Z,994.28
2019-01-08T08:28:10.657Z,994.39
2019-01-08T08:29:10.652Z,994.26
2019-01-08T08:30:10.619Z,994.22
2019-01-08T08:31:10.626Z,994.24
2019-01-08T08:32:10.574Z,994.31
2019-01-08T08:33:10.584Z,994.27
2019-01-08T08:34:10.543Z,994.13
2019-01-08T08:35:10.587Z,994.19
2019-01-08T08:36:10.501Z,994.15
2019-01-08T08:37:11.943Z,994.22
2019-01-08T08:38:10.505Z,994.17
2019-01-08T08:39:10.436Z,994.24
2019-01-08T08:40:10.430Z,993.97
2019-01-08T08:41:10.406Z,994.18
2019-01-08T08:42:10.377Z,994.18
2019-01-08T08:43:10.402Z,993.94
2019-01-08T08:44:10.359Z,993.94
2019-01-08T08:45:10.317Z,994.09
2019-01-08T08:46:10.303Z,994.13
2019-01-08T08:47:10.278Z,994.01
2019-01-08T08:48:10.302Z,994.05
2019-01-08T08:49:10.247Z,993.81
2019-01-08T08:50:10.228Z,994.06
2019-01-08T08:51:10.197Z,994.16
2019-01-08T08:52:10.194Z,993.96
2019-01-08T08:53:10.205Z,993.92
2019-01-08T08:54:10.155Z,993.95
2019-01-08T08:55:10.123Z,993.92
2019-01-08T08:56:10.103Z,993.99
2019-01-08T08:57:10.094Z,993.93
2019-01-08T08:58:10.069Z,993.75
2019-01-08T08:59:10.058Z,994.04
2019-01-08T09:00:10.035Z,993.94
2019-01-08T09:01:10.019Z,993.80
2019-01-08T09:02:09.986Z,993.98
2019-01-08T09:03:09.962Z,993.87
2019-01-08T09:04:09.977Z,993.85
2019-01-08T09:05:09.927Z,993.94
2019-01-08T09:06:09.916Z,994.00
2019-01-08T09:07:09.935Z,993.93
2019-01-08T09:08:09.861Z,993.56
2019-01-08T09:09:09.868Z,993.67
2019-01-08T09:10:09.837Z,993.99
2019-01-08T09:11:09.816Z,993.91
2019-01-08T09:12:09.970Z,993.98
2019-01-08T09:13:09.774Z,993.86
2019-01-08T09:14:09.745Z,994.06
2019-01-08T09:15:09.738Z,993.95
2019-01-08T09:16:09.711Z,994.00
2019-01-08T09:17:09.690Z,994.12
2019-01-08T09:18:09.847Z,994.09
2019-01-08T09:19:09.659Z,994.14
2019-01-08T09:20:09.636Z,994.16
2019-01-08T09:21:09.625Z,994.09
2019-01-08T09:22:09.608Z,993.97
2019-01-08T09:23:09.588Z,994.19
2019-01-08T09:24:09.583Z,994.13
2019-01-08T09:25:09.548Z,994.06
2019-01-08T09:26:09.531Z,994.10
2019-01-08T09:27:09.503Z,994.11
2019-01-08T09:28:09.484Z,994.19
2019-01-08T09:29:09.477Z,994.32
2019-01-08T09:30:09.451Z,994.11
2019-01-08T09:31:15.408Z,994.04
2019-01-08T09:32:09.413Z,994.13
2019-01-08T09:33:09.397Z,993.99
2019-01-08T09:34:09.516Z,994.08
2019-01-08T09:35:09.343Z,994.04
2019-01-08T09:36:09.341Z,994.09
2019-01-08T09:37:09.305Z,994.00
2019-01-08T09:38:10.019Z,994.01
2019-01-08T09:39:09.361Z,994.17
2019-01-08T09:40:09.278Z,994.16
2019-01-08T09:41:09.232Z,994.12
2019-01-08T09:42:09.244Z,994.02
2019-01-08T09:43:09.188Z,993.97
2019-01-08T09:44:09.174Z,993.93
2019-01-08T09:45:09.169Z,994.06
2019-01-08T09:46:09.155Z,994.16
2019-01-08T09:47:09.110Z,994.10
2019-01-08T09:48:09.102Z,993.92
2019-01-08T09:49:09.082Z,994.13
2019-01-08T09:50:09.060Z,994.01
2019-01-08T09:51:09.167Z,994.19
2019-01-08T09:52:09.019Z,994.09
2019-01-08T09:53:08.993Z,994.08
2019-01-08T09:54:08.982Z,994.09
2019-01-08T09:55:08.953Z,994.03
2019-01-08T09:56:08.934Z,994.00
2019-01-08T09:57:08.935Z,994.13
2019-01-08T09:58:08.891Z,994.06
2019-01-08T09:59:08.892Z,994.03
2019-01-08T10:00:08.861Z,994.19
2019-01-08T10:01:08.860Z,994.14
2019-01-08T10:02:08.827Z,994.10
2019-01-08T10:03:08.800Z,994.17
2019-01-08T10:04:08.793Z,994.12
2019-01-08T10:05:08.783Z,994.11
2019-01-08T10:06:08.751Z,994.12
2019-01-08T10:07:08.759Z,994.17
2019-01-08T10:08:08.717Z,994.00
2019-01-08T10:09:08.715Z,994.10
2019-01-08T10:10:08.671Z,993.95
2019-01-08T10:11:08.643Z,994.11
2019-01-08T10:12:08.782Z,994.05
2019-01-08T10:13:08.617Z,994.10
2019-01-08T10:14:08.586Z,993.98
2019-01-08T10:15:08.583Z,993.83
2019-01-08T10:16:08.545Z,994.03
2019-01-08T10:17:08.531Z,993.94
2019-01-08T10:18:08.544Z,993.95
2019-01-08T10:19:08.502Z,993.94
2019-01-08T10:20:08.502Z,993.96
2019-01-08T10:21:08.463Z,993.99
2019-01-08T10:22:08.443Z,994.02
2019-01-08T10:23:10.151Z,993.92
2019-01-08T10:24:08.405Z,993.74
2019-01-08T10:25:08.701Z,993.82
2019-01-08T10:26:08.369Z,993.73
2019-01-08T10:27:08.341Z,993.89
2019-01-08T10:28:08.326Z,993.85
2019-01-08T10:29:08.305Z,993.94
2019-01-08T10:30:08.325Z,993.91
2019-01-08T10:31:08.266Z,993.77
2019-01-08T10:32:08.237Z,994.08
2019-01-08T10:33:08.229Z,993.94
2019-01-08T10:34:08.203Z,993.92
2019-01-08T10:35:08.225Z,993.94
2019-01-08T10:36:08.170Z,994.00
2019-01-08T10:37:08.145Z,993.96
2019-01-08T10:38:08.137Z,993.99
2019-01-08T10:39:08.114Z,994.05
2019-01-08T10:40:08.122Z,993.92
2019-01-08T10:41:08.079Z,994.08
2019-01-08T10:42:08.074Z,993.89
2019-01-08T10:43:08.029Z,993.80
2019-01-08T10:44:08.012Z,993.97
2019-01-08T10:45:07.999Z,993.97
2019-01-08T10:46:07.975Z,993.83
2019-01-08T10:47:07.954Z,993.86
2019-01-08T10:48:07.952Z,994.05
2019-01-08T10:49:07.921Z,993.79
2019-01-08T10:50:07.933Z,994.00
2019-01-08T10:51:07.910Z,994.01
2019-01-08T10:52:07.865Z,993.96
2019-01-08T10:53:07.996Z,993.94
2019-01-08T10:54:07.836Z,993.81
2019-01-08T10:55:07.799Z,993.90
2019-01-08T10:56:07.788Z,993.91
2019-01-08T10:57:07.778Z,993.74
2019-01-08T10:58:07.754Z,993.92
2019-01-08T10:59:08.014Z,993.90
2019-01-08T11:00:07.701Z,993.85
2019-01-08T11:01:07.694Z,993.74
2019-01-08T11:02:07.677Z,993.69
2019-01-08T11:03:07.689Z,993.71
2019-01-08T11:04:07.628Z,993.72
2019-01-08T11:05:07.615Z,993.77
2019-01-08T11:06:07.594Z,993.79
2019-01-08T11:07:07.570Z,993.80
2019-01-08T11:08:07.591Z,993.86
2019-01-08T11:09:07.537Z,993.86
2019-01-08T11:10:07.522Z,993.74
2019-01-08T11:11:07.503Z,993.73
2019-01-08T11:12:07.486Z,993.64
2019-01-08T11:13:07.522Z,993.73
2019-01-08T11:14:07.433Z,994.00
2019-01-08T11:15:07.430Z,993.80
2019-01-08T11:16:07.410Z,993.95
2019-01-08T11:17:07.384Z,993.93
2019-01-08T11:18:07.362Z,994.03
2019-01-08T11:19:07.358Z,994.04
2019-01-08T11:20:07.364Z,994.00
2019-01-08T11:21:07.305Z,994.11
2019-01-08T11:22:07.288Z,994.16
2019-01-08T11:23:07.272Z,994.00
2019-01-08T11:24:07.276Z,994.01
2019-01-08T11:25:07.251Z,994.22
2019-01-08T11:26:07.226Z,994.12
2019-01-08T11:27:07.195Z,994.24
2019-01-08T11:28:07.186Z,994.11
2019-01-08T11:29:07.181Z,994.08
2019-01-08T11:30:07.144Z,994.09
2019-01-08T11:31:07.119Z,994.06
2019-01-08T11:32:07.090Z,994.20
2019-01-08T11:33:07.077Z,994.13
2019-01-08T11:34:07.079Z,994.09
2019-01-08T11:35:07.045Z,994.09
2019-01-08T11:36:07.117Z,994.14
2019-01-08T11:37:07.200Z,994.12
2019-01-08T11:38:06.979Z,994.09
2019-01-08T11:39:06.966Z,994.12
2019-01-08T11:40:06.947Z,994.14
2019-01-08T11:41:06.923Z,994.09
2019-01-08T11:42:06.913Z,994.17
2019-01-08T11:43:06.903Z,994.05
2019-01-08T11:44:06.863Z,994.20
2019-01-08T11:45:06.853Z,994.02
2019-01-08T11:46:06.828Z,994.11
2019-01-08T11:47:06.807Z,994.20
2019-01-08T11:48:06.782Z,994.14
2019-01-08T11:49:06.776Z,994.25
2019-01-08T11:50:06.745Z,994.23
2019-01-08T11:51:06.736Z,994.11
2019-01-08T11:52:06.712Z,994.30
2019-01-08T11:53:06.694Z,994.33
2019-01-08T11:54:06.679Z,994.34
2019-01-08T11:55:06.652Z,994.49
2019-01-08T11:56:06.706Z,994.40
2019-01-08T11:57:06.618Z,994.41
2019-01-08T11:58:06.596Z,994.42
2019-01-08T11:59:06.582Z,994.32
2019-01-08T12:00:06.570Z,994.36
2019-01-08T12:01:06.554Z,994.30
2019-01-08T12:02:06.552Z,994.31
2019-01-08T12:03:06.503Z,994.41
2019-01-08T12:04:06.496Z,994.39
2019-01-08T12:05:06.459Z,994.43
2019-01-08T12:06:06.645Z,994.35
2019-01-08T12:07:06.445Z,994.10
2019-01-08T12:08:06.409Z,994.10
2019-01-08T12:09:06.397Z,994.31
2019-01-08T12:10:06.379Z,994.14
2019-01-08T12:11:06.493Z,994.39
2019-01-08T12:12:06.332Z,993.94
2019-01-08T12:13:06.318Z,994.24
2019-01-08T12:14:06.322Z,994.31
2019-01-08T12:15:06.296Z,994.26
2019-01-08T12:16:06.256Z,994.23
2019-01-08T12:17:06.263Z,994.28
2019-01-08T12:18:06.214Z,994.14
2019-01-08T12:19:06.204Z,994.20
2019-01-08T12:20:06.199Z,994.19
2019-01-08T12:21:06.172Z,994.23
2019-01-08T12:22:06.298Z,994.13
2019-01-08T12:23:06.138Z,994.05
2019-01-08T12:24:06.104Z,994.15